sensor_id;sensor_type;location;lat;lon;timestamp;temperature;humidity
45807;DHT22;31507;51.494;7.518;2024-01-16T00:01:15;0.10;99.90
45807;DHT22;31507;51.494;7.518;2024-01-16T00:03:43;0.20;99.90
45807;DHT22;31507;51.494;7.518;2024-01-16T00:06:09;0.10;99.90
45807;DHT22;31507;51.494;7.518;2024-01-16T00:08:35;0.10;99.90
45807;DHT22;31507;51.494;7.518;2024-01-16T00:11:04;0.20;99.90
45807;DHT22;31507;51.494;7.518;2024-01-16T00:13:29;0.20;99.90
45807;DHT22;31507;51.494;7.518;2024-01-16T00:15:55;0.20;99.90
45807;DHT22;31507;51.494;7.518;2024-01-16T00:18:22;0.10;99.90
45807;DHT22;31507;51.494;7.518;2024-01-16T00:20:47;0.10;99.90
45807;DHT22;31507;51.494;7.518;2024-01-16T00:23:13;0.10;99.90
45807;DHT22;31507;51.494;7.518;2024-01-16T00:25:38;0.10;99.90
45807;DHT22;31507;51.494;7.518;2024-01-16T00:28:04;0.10;99.90
45807;DHT22;31507;51.494;7.518;2024-01-16T00:30:30;0.20;99.90
45807;DHT22;31507;51.494;7.518;2024-01-16T00:32:55;0.10;99.90
45807;DHT22;31507;51.494;7.518;2024-01-16T00:35:21;0.20;99.90
45807;DHT22;31507;51.494;7.518;2024-01-16T00:37:46;0.10;99.90
45807;DHT22;31507;51.494;7.518;2024-01-16T00:40:12;0.10;99.90
45807;DHT22;31507;51.494;7.518;2024-01-16T00:42:37;0.20;99.90
45807;DHT22;31507;51.494;7.518;2024-01-16T00:45:03;0.20;99.90
45807;DHT22;31507;51.494;7.518;2024-01-16T00:47:29;0.20;99.90
45807;DHT22;31507;51.494;7.518;2024-01-16T00:49:55;0.20;99.90
45807;DHT22;31507;51.494;7.518;2024-01-16T00:52:20;0.20;99.90
45807;DHT22;31507;51.494;7.518;2024-01-16T00:54:46;0.20;99.90
45807;DHT22;31507;51.494;7.518;2024-01-16T00:57:11;0.10;99.90
45807;DHT22;31507;51.494;7.518;2024-01-16T00:59:37;0.10;99.90
45807;DHT22;31507;51.494;7.518;2024-01-16T01:02:03;0.10;99.90
45807;DHT22;31507;51.494;7.518;2024-01-16T01:04:29;0.10;99.90
45807;DHT22;31507;51.494;7.518;2024-01-16T01:06:54;0.20;99.90
45807;DHT22;31507;51.494;7.518;2024-01-16T01:09:20;0.10;99.90
45807;DHT22;31507;51.494;7.518;2024-01-16T01:11:45;0.10;99.90
45807;DHT22;31507;51.494;7.518;2024-01-16T01:14:11;0.10;99.90
45807;DHT22;31507;51.494;7.518;2024-01-16T01:16:37;0.10;99.90
45807;DHT22;31507;51.494;7.518;2024-01-16T01:19:02;0.10;99.90
45807;DHT22;31507;51.494;7.518;2024-01-16T01:21:28;0.10;99.90
45807;DHT22;31507;51.494;7.518;2024-01-16T01:23:54;0.00;99.90
45807;DHT22;31507;51.494;7.518;2024-01-16T01:26:19;0.00;99.90
45807;DHT22;31507;51.494;7.518;2024-01-16T01:28:45;0.00;99.90
45807;DHT22;31507;51.494;7.518;2024-01-16T01:31:10;-0.10;99.90
45807;DHT22;31507;51.494;7.518;2024-01-16T01:33:36;-0.20;99.90
45807;DHT22;31507;51.494;7.518;2024-01-16T01:36:02;-0.20;99.90
45807;DHT22;31507;51.494;7.518;2024-01-16T01:38:28;-0.30;99.90
45807;DHT22;31507;51.494;7.518;2024-01-16T01:40:53;-0.30;99.90
45807;DHT22;31507;51.494;7.518;2024-01-16T01:43:22;-0.30;99.90
45807;DHT22;31507;51.494;7.518;2024-01-16T01:46:10;-0.30;99.90
45807;DHT22;31507;51.494;7.518;2024-01-16T01:48:35;-0.30;99.90
45807;DHT22;31507;51.494;7.518;2024-01-16T01:51:01;-0.30;99.90
45807;DHT22;31507;51.494;7.518;2024-01-16T01:53:27;-0.20;99.90
45807;DHT22;31507;51.494;7.518;2024-01-16T01:55:53;-0.20;99.90
45807;DHT22;31507;51.494;7.518;2024-01-16T01:58:19;-0.20;99.90
45807;DHT22;31507;51.494;7.518;2024-01-16T02:00:45;-0.10;99.90
45807;DHT22;31507;51.494;7.518;2024-01-16T02:03:10;-0.20;99.90
45807;DHT22;31507;51.494;7.518;2024-01-16T02:05:36;-0.10;99.90
45807;DHT22;31507;51.494;7.518;2024-01-16T02:08:02;-0.20;99.90
45807;DHT22;31507;51.494;7.518;2024-01-16T02:10:27;-0.20;99.90
45807;DHT22;31507;51.494;7.518;2024-01-16T02:12:53;-0.20;99.90
45807;DHT22;31507;51.494;7.518;2024-01-16T02:15:18;-0.20;99.90
45807;DHT22;31507;51.494;7.518;2024-01-16T02:17:44;-0.20;99.90
45807;DHT22;31507;51.494;7.518;2024-01-16T02:20:09;-0.10;99.90
45807;DHT22;31507;51.494;7.518;2024-01-16T02:22:35;-0.10;99.90
45807;DHT22;31507;51.494;7.518;2024-01-16T02:25:01;-0.10;99.90
45807;DHT22;31507;51.494;7.518;2024-01-16T02:27:26;-0.10;99.90
45807;DHT22;31507;51.494;7.518;2024-01-16T02:29:52;-0.10;99.90
45807;DHT22;31507;51.494;7.518;2024-01-16T02:32:17;-0.10;99.90
45807;DHT22;31507;51.494;7.518;2024-01-16T02:34:43;-0.10;99.90
45807;DHT22;31507;51.494;7.518;2024-01-16T02:37:09;-0.10;99.90
45807;DHT22;31507;51.494;7.518;2024-01-16T02:39:34;-0.10;99.90
45807;DHT22;31507;51.494;7.518;2024-01-16T02:42:00;-0.10;99.90
45807;DHT22;31507;51.494;7.518;2024-01-16T02:44:26;-0.10;99.90
45807;DHT22;31507;51.494;7.518;2024-01-16T02:46:51;-0.10;99.90
45807;DHT22;31507;51.494;7.518;2024-01-16T02:49:17;-0.10;99.90
45807;DHT22;31507;51.494;7.518;2024-01-16T02:51:42;-0.10;99.90
45807;DHT22;31507;51.494;7.518;2024-01-16T02:54:08;-0.10;99.90
45807;DHT22;31507;51.494;7.518;2024-01-16T02:56:34;-0.10;99.90
45807;DHT22;31507;51.494;7.518;2024-01-16T02:59:00;-0.10;99.90
45807;DHT22;31507;51.494;7.518;2024-01-16T03:01:25;-0.10;99.90
45807;DHT22;31507;51.494;7.518;2024-01-16T03:03:51;-0.10;99.90
45807;DHT22;31507;51.494;7.518;2024-01-16T03:06:23;-0.10;99.90
45807;DHT22;31507;51.494;7.518;2024-01-16T03:08:49;-0.10;99.90
45807;DHT22;31507;51.494;7.518;2024-01-16T03:11:15;-0.10;99.90
45807;DHT22;31507;51.494;7.518;2024-01-16T03:13:40;-0.10;99.90
45807;DHT22;31507;51.494;7.518;2024-01-16T03:16:06;-0.10;99.90
45807;DHT22;31507;51.494;7.518;2024-01-16T03:18:32;-0.10;99.90
45807;DHT22;31507;51.494;7.518;2024-01-16T03:20:58;-0.10;99.90
45807;DHT22;31507;51.494;7.518;2024-01-16T03:23:24;-0.10;99.90
45807;DHT22;31507;51.494;7.518;2024-01-16T03:25:50;-0.10;99.90
45807;DHT22;31507;51.494;7.518;2024-01-16T03:28:15;-0.10;99.90
45807;DHT22;31507;51.494;7.518;2024-01-16T03:30:41;-0.10;99.90
45807;DHT22;31507;51.494;7.518;2024-01-16T03:33:06;0.00;99.90
45807;DHT22;31507;51.494;7.518;2024-01-16T03:35:32;0.00;99.90
45807;DHT22;31507;51.494;7.518;2024-01-16T03:37:57;0.00;99.90
45807;DHT22;31507;51.494;7.518;2024-01-16T03:40:23;0.00;99.90
45807;DHT22;31507;51.494;7.518;2024-01-16T03:42:48;0.00;99.90
45807;DHT22;31507;51.494;7.518;2024-01-16T03:45:14;0.00;99.90
45807;DHT22;31507;51.494;7.518;2024-01-16T03:47:39;0.00;99.90
45807;DHT22;31507;51.494;7.518;2024-01-16T03:50:05;0.00;99.90
45807;DHT22;31507;51.494;7.518;2024-01-16T03:52:31;0.00;99.90
45807;DHT22;31507;51.494;7.518;2024-01-16T03:54:56;0.10;99.90
45807;DHT22;31507;51.494;7.518;2024-01-16T03:57:22;0.00;99.90
45807;DHT22;31507;51.494;7.518;2024-01-16T03:59:47;0.10;99.90
45807;DHT22;31507;51.494;7.518;2024-01-16T04:02:13;0.10;99.90
45807;DHT22;31507;51.494;7.518;2024-01-16T04:04:39;0.10;99.90
45807;DHT22;31507;51.494;7.518;2024-01-16T04:07:06;0.10;99.90
45807;DHT22;31507;51.494;7.518;2024-01-16T04:09:31;0.10;99.90
45807;DHT22;31507;51.494;7.518;2024-01-16T04:11:57;0.10;99.90
45807;DHT22;31507;51.494;7.518;2024-01-16T04:14:22;0.10;99.90
45807;DHT22;31507;51.494;7.518;2024-01-16T04:16:48;0.10;99.90
45807;DHT22;31507;51.494;7.518;2024-01-16T04:19:13;0.10;99.90
45807;DHT22;31507;51.494;7.518;2024-01-16T04:21:39;0.10;99.90
45807;DHT22;31507;51.494;7.518;2024-01-16T04:24:04;0.10;99.90
45807;DHT22;31507;51.494;7.518;2024-01-16T04:26:30;0.10;99.90
45807;DHT22;31507;51.494;7.518;2024-01-16T04:28:55;0.10;99.90
45807;DHT22;31507;51.494;7.518;2024-01-16T04:31:21;0.20;99.90
45807;DHT22;31507;51.494;7.518;2024-01-16T04:33:47;0.20;99.90
45807;DHT22;31507;51.494;7.518;2024-01-16T04:36:13;0.20;99.90
45807;DHT22;31507;51.494;7.518;2024-01-16T04:38:38;0.20;99.90
45807;DHT22;31507;51.494;7.518;2024-01-16T04:41:04;0.20;99.90
45807;DHT22;31507;51.494;7.518;2024-01-16T04:43:30;0.20;99.90
45807;DHT22;31507;51.494;7.518;2024-01-16T04:45:55;0.20;99.90
45807;DHT22;31507;51.494;7.518;2024-01-16T04:48:21;0.20;99.90
45807;DHT22;31507;51.494;7.518;2024-01-16T04:50:46;0.20;99.90
45807;DHT22;31507;51.494;7.518;2024-01-16T04:53:11;0.20;99.90
45807;DHT22;31507;51.494;7.518;2024-01-16T04:55:37;0.20;99.90
45807;DHT22;31507;51.494;7.518;2024-01-16T04:58:02;0.20;99.90
45807;DHT22;31507;51.494;7.518;2024-01-16T05:00:28;0.20;99.90
45807;DHT22;31507;51.494;7.518;2024-01-16T05:02:53;0.20;99.90
45807;DHT22;31507;51.494;7.518;2024-01-16T05:05:19;0.20;99.90
45807;DHT22;31507;51.494;7.518;2024-01-16T05:07:44;0.20;99.90
45807;DHT22;31507;51.494;7.518;2024-01-16T05:10:10;0.10;99.90
45807;DHT22;31507;51.494;7.518;2024-01-16T05:12:42;0.20;99.90
45807;DHT22;31507;51.494;7.518;2024-01-16T05:15:07;0.10;99.90
45807;DHT22;31507;51.494;7.518;2024-01-16T05:17:33;0.10;99.90
45807;DHT22;31507;51.494;7.518;2024-01-16T05:19:59;0.10;99.90
45807;DHT22;31507;51.494;7.518;2024-01-16T05:22:24;0.20;99.90
45807;DHT22;31507;51.494;7.518;2024-01-16T05:24:50;0.10;99.90
45807;DHT22;31507;51.494;7.518;2024-01-16T05:27:16;0.20;99.90
45807;DHT22;31507;51.494;7.518;2024-01-16T05:29:41;0.20;99.90
45807;DHT22;31507;51.494;7.518;2024-01-16T05:32:07;0.20;99.90
45807;DHT22;31507;51.494;7.518;2024-01-16T05:34:33;0.20;99.90
45807;DHT22;31507;51.494;7.518;2024-01-16T05:36:58;0.20;99.90
45807;DHT22;31507;51.494;7.518;2024-01-16T05:39:24;0.20;99.90
45807;DHT22;31507;51.494;7.518;2024-01-16T05:41:49;0.20;99.90
45807;DHT22;31507;51.494;7.518;2024-01-16T05:44:15;0.20;99.90
45807;DHT22;31507;51.494;7.518;2024-01-16T05:46:41;0.20;99.90
45807;DHT22;31507;51.494;7.518;2024-01-16T05:49:06;0.20;99.90
45807;DHT22;31507;51.494;7.518;2024-01-16T05:51:32;0.20;99.90
45807;DHT22;31507;51.494;7.518;2024-01-16T05:53:57;0.20;99.90
45807;DHT22;31507;51.494;7.518;2024-01-16T05:56:23;0.20;99.90
45807;DHT22;31507;51.494;7.518;2024-01-16T05:58:49;0.20;99.90
45807;DHT22;31507;51.494;7.518;2024-01-16T06:01:14;0.20;99.90
45807;DHT22;31507;51.494;7.518;2024-01-16T06:03:40;0.20;99.90
45807;DHT22;31507;51.494;7.518;2024-01-16T06:06:05;0.10;99.90
45807;DHT22;31507;51.494;7.518;2024-01-16T06:08:32;0.10;99.90
45807;DHT22;31507;51.494;7.518;2024-01-16T06:10:58;0.10;99.90
45807;DHT22;31507;51.494;7.518;2024-01-16T06:13:23;0.20;99.90
45807;DHT22;31507;51.494;7.518;2024-01-16T06:15:49;0.20;99.90
45807;DHT22;31507;51.494;7.518;2024-01-16T06:18:14;0.20;99.90
45807;DHT22;31507;51.494;7.518;2024-01-16T06:20:40;0.20;99.90
45807;DHT22;31507;51.494;7.518;2024-01-16T06:23:05;0.20;99.90
45807;DHT22;31507;51.494;7.518;2024-01-16T06:25:31;0.20;99.90
45807;DHT22;31507;51.494;7.518;2024-01-16T06:27:56;0.20;99.90
45807;DHT22;31507;51.494;7.518;2024-01-16T06:30:22;0.20;99.90
45807;DHT22;31507;51.494;7.518;2024-01-16T06:32:48;0.20;99.90
45807;DHT22;31507;51.494;7.518;2024-01-16T06:35:15;0.20;99.90
45807;DHT22;31507;51.494;7.518;2024-01-16T06:37:40;0.20;99.90
45807;DHT22;31507;51.494;7.518;2024-01-16T06:40:06;0.20;99.90
45807;DHT22;31507;51.494;7.518;2024-01-16T06:42:32;0.20;99.90
45807;DHT22;31507;51.494;7.518;2024-01-16T06:44:57;0.20;99.90
45807;DHT22;31507;51.494;7.518;2024-01-16T06:47:23;0.20;99.90
45807;DHT22;31507;51.494;7.518;2024-01-16T06:49:49;0.10;99.90
45807;DHT22;31507;51.494;7.518;2024-01-16T06:52:14;0.20;99.90
45807;DHT22;31507;51.494;7.518;2024-01-16T06:54:40;0.10;99.90
45807;DHT22;31507;51.494;7.518;2024-01-16T06:57:05;0.10;99.90
45807;DHT22;31507;51.494;7.518;2024-01-16T06:59:31;0.10;99.90
45807;DHT22;31507;51.494;7.518;2024-01-16T07:01:57;0.20;99.90
45807;DHT22;31507;51.494;7.518;2024-01-16T07:04:22;0.20;99.90
45807;DHT22;31507;51.494;7.518;2024-01-16T07:06:48;0.20;99.90
45807;DHT22;31507;51.494;7.518;2024-01-16T07:09:14;0.20;99.90
45807;DHT22;31507;51.494;7.518;2024-01-16T07:11:41;0.10;99.90
45807;DHT22;31507;51.494;7.518;2024-01-16T07:14:08;0.20;99.90
45807;DHT22;31507;51.494;7.518;2024-01-16T07:16:34;0.20;99.90
45807;DHT22;31507;51.494;7.518;2024-01-16T07:18:59;0.10;99.90
45807;DHT22;31507;51.494;7.518;2024-01-16T07:21:25;0.10;99.90
45807;DHT22;31507;51.494;7.518;2024-01-16T07:23:50;0.10;99.90
45807;DHT22;31507;51.494;7.518;2024-01-16T07:26:16;0.10;99.90
45807;DHT22;31507;51.494;7.518;2024-01-16T07:28:41;0.10;99.90
45807;DHT22;31507;51.494;7.518;2024-01-16T07:31:07;0.10;99.90
45807;DHT22;31507;51.494;7.518;2024-01-16T07:33:35;0.10;99.90
45807;DHT22;31507;51.494;7.518;2024-01-16T07:36:00;0.10;99.90
45807;DHT22;31507;51.494;7.518;2024-01-16T07:38:26;0.10;99.90
45807;DHT22;31507;51.494;7.518;2024-01-16T07:40:51;0.10;99.90
45807;DHT22;31507;51.494;7.518;2024-01-16T07:43:17;0.10;99.90
45807;DHT22;31507;51.494;7.518;2024-01-16T07:45:42;0.10;99.90
45807;DHT22;31507;51.494;7.518;2024-01-16T07:48:08;0.10;99.90
45807;DHT22;31507;51.494;7.518;2024-01-16T07:50:33;0.10;99.90
45807;DHT22;31507;51.494;7.518;2024-01-16T07:52:59;0.10;99.90
45807;DHT22;31507;51.494;7.518;2024-01-16T07:55:24;0.10;99.90
45807;DHT22;31507;51.494;7.518;2024-01-16T07:57:50;0.10;99.90
45807;DHT22;31507;51.494;7.518;2024-01-16T08:00:15;0.10;99.90
45807;DHT22;31507;51.494;7.518;2024-01-16T08:02:41;0.10;99.90
45807;DHT22;31507;51.494;7.518;2024-01-16T08:05:07;0.10;99.90
45807;DHT22;31507;51.494;7.518;2024-01-16T08:07:32;0.10;99.90
45807;DHT22;31507;51.494;7.518;2024-01-16T08:09:58;0.10;99.90
45807;DHT22;31507;51.494;7.518;2024-01-16T08:12:23;0.10;99.90
45807;DHT22;31507;51.494;7.518;2024-01-16T08:14:49;0.10;99.90
45807;DHT22;31507;51.494;7.518;2024-01-16T08:17:14;0.10;99.90
45807;DHT22;31507;51.494;7.518;2024-01-16T08:19:40;0.10;99.90
45807;DHT22;31507;51.494;7.518;2024-01-16T08:22:06;0.10;99.90
45807;DHT22;31507;51.494;7.518;2024-01-16T08:24:31;0.10;99.90
45807;DHT22;31507;51.494;7.518;2024-01-16T08:26:57;0.10;99.90
45807;DHT22;31507;51.494;7.518;2024-01-16T08:29:23;0.10;99.90
45807;DHT22;31507;51.494;7.518;2024-01-16T08:31:49;0.10;99.90
45807;DHT22;31507;51.494;7.518;2024-01-16T08:34:15;0.10;99.90
45807;DHT22;31507;51.494;7.518;2024-01-16T08:36:41;0.20;99.90
45807;DHT22;31507;51.494;7.518;2024-01-16T08:39:06;0.20;99.90
45807;DHT22;31507;51.494;7.518;2024-01-16T08:41:32;0.20;99.90
45807;DHT22;31507;51.494;7.518;2024-01-16T08:43:57;0.20;99.90
45807;DHT22;31507;51.494;7.518;2024-01-16T08:46:23;0.20;99.90
45807;DHT22;31507;51.494;7.518;2024-01-16T08:48:49;0.20;99.90
45807;DHT22;31507;51.494;7.518;2024-01-16T08:51:14;0.20;99.90
45807;DHT22;31507;51.494;7.518;2024-01-16T08:53:40;0.20;99.90
45807;DHT22;31507;51.494;7.518;2024-01-16T08:56:05;0.20;99.90
45807;DHT22;31507;51.494;7.518;2024-01-16T08:58:34;0.20;99.90
45807;DHT22;31507;51.494;7.518;2024-01-16T09:01:03;0.10;99.90
45807;DHT22;31507;51.494;7.518;2024-01-16T09:03:30;0.10;99.90
45807;DHT22;31507;51.494;7.518;2024-01-16T09:05:56;0.10;99.90
45807;DHT22;31507;51.494;7.518;2024-01-16T09:08:21;0.10;99.90
45807;DHT22;31507;51.494;7.518;2024-01-16T09:10:47;0.20;99.90
45807;DHT22;31507;51.494;7.518;2024-01-16T09:13:13;0.10;99.90
45807;DHT22;31507;51.494;7.518;2024-01-16T09:15:39;0.10;99.90
45807;DHT22;31507;51.494;7.518;2024-01-16T09:18:05;0.10;99.90
45807;DHT22;31507;51.494;7.518;2024-01-16T09:20:31;0.10;99.90
45807;DHT22;31507;51.494;7.518;2024-01-16T09:22:56;0.20;99.90
45807;DHT22;31507;51.494;7.518;2024-01-16T09:25:22;0.10;99.90
45807;DHT22;31507;51.494;7.518;2024-01-16T09:27:50;0.10;99.90
45807;DHT22;31507;51.494;7.518;2024-01-16T09:30:16;0.10;99.90
45807;DHT22;31507;51.494;7.518;2024-01-16T09:32:41;0.20;99.90
45807;DHT22;31507;51.494;7.518;2024-01-16T09:35:08;0.20;99.90
45807;DHT22;31507;51.494;7.518;2024-01-16T09:37:34;0.20;99.90
45807;DHT22;31507;51.494;7.518;2024-01-16T09:40:00;0.20;99.90
45807;DHT22;31507;51.494;7.518;2024-01-16T09:42:26;0.30;99.90
45807;DHT22;31507;51.494;7.518;2024-01-16T09:44:52;0.30;99.90
45807;DHT22;31507;51.494;7.518;2024-01-16T09:47:19;0.40;99.90
45807;DHT22;31507;51.494;7.518;2024-01-16T09:49:46;0.50;99.90
45807;DHT22;31507;51.494;7.518;2024-01-16T09:52:11;0.50;99.90
45807;DHT22;31507;51.494;7.518;2024-01-16T09:54:37;0.50;99.90
45807;DHT22;31507;51.494;7.518;2024-01-16T09:57:02;0.50;99.90
45807;DHT22;31507;51.494;7.518;2024-01-16T09:59:30;0.60;99.90
45807;DHT22;31507;51.494;7.518;2024-01-16T10:01:57;0.60;99.90
45807;DHT22;31507;51.494;7.518;2024-01-16T10:04:26;0.60;99.90
45807;DHT22;31507;51.494;7.518;2024-01-16T10:06:53;0.50;99.90
45807;DHT22;31507;51.494;7.518;2024-01-16T10:09:20;0.50;99.90
45807;DHT22;31507;51.494;7.518;2024-01-16T10:11:46;0.50;99.90
45807;DHT22;31507;51.494;7.518;2024-01-16T10:14:12;0.50;99.90
45807;DHT22;31507;51.494;7.518;2024-01-16T10:16:57;0.50;99.90
45807;DHT22;31507;51.494;7.518;2024-01-16T10:19:23;0.40;99.90
45807;DHT22;31507;51.494;7.518;2024-01-16T10:21:49;0.50;99.90
45807;DHT22;31507;51.494;7.518;2024-01-16T10:24:14;0.50;99.90
45807;DHT22;31507;51.494;7.518;2024-01-16T10:26:40;0.50;99.90
45807;DHT22;31507;51.494;7.518;2024-01-16T10:29:05;0.50;99.90
45807;DHT22;31507;51.494;7.518;2024-01-16T10:31:31;0.60;99.90
45807;DHT22;31507;51.494;7.518;2024-01-16T10:33:56;0.60;99.90
45807;DHT22;31507;51.494;7.518;2024-01-16T10:36:23;0.60;99.90
45807;DHT22;31507;51.494;7.518;2024-01-16T10:38:49;0.60;99.90
45807;DHT22;31507;51.494;7.518;2024-01-16T10:41:19;0.70;99.90
45807;DHT22;31507;51.494;7.518;2024-01-16T10:43:57;0.70;99.90
45807;DHT22;31507;51.494;7.518;2024-01-16T10:46:28;0.70;99.90
45807;DHT22;31507;51.494;7.518;2024-01-16T10:49:00;0.70;99.90
45807;DHT22;31507;51.494;7.518;2024-01-16T10:51:26;0.70;99.90
45807;DHT22;31507;51.494;7.518;2024-01-16T10:53:51;0.70;99.90
45807;DHT22;31507;51.494;7.518;2024-01-16T10:56:19;0.70;99.90
45807;DHT22;31507;51.494;7.518;2024-01-16T10:58:45;0.90;99.90
45807;DHT22;31507;51.494;7.518;2024-01-16T11:01:14;0.90;99.90
45807;DHT22;31507;51.494;7.518;2024-01-16T11:03:47;0.90;99.90
45807;DHT22;31507;51.494;7.518;2024-01-16T11:06:16;0.90;99.90
45807;DHT22;31507;51.494;7.518;2024-01-16T11:08:42;1.00;99.90
45807;DHT22;31507;51.494;7.518;2024-01-16T11:11:08;1.10;99.90
45807;DHT22;31507;51.494;7.518;2024-01-16T11:13:36;1.20;99.90
45807;DHT22;31507;51.494;7.518;2024-01-16T11:16:02;1.30;99.90
45807;DHT22;31507;51.494;7.518;2024-01-16T11:18:29;1.50;99.90
45807;DHT22;31507;51.494;7.518;2024-01-16T11:20:55;1.70;99.90
45807;DHT22;31507;51.494;7.518;2024-01-16T11:23:21;1.80;99.90
45807;DHT22;31507;51.494;7.518;2024-01-16T11:25:46;1.90;99.90
45807;DHT22;31507;51.494;7.518;2024-01-16T11:28:12;2.30;99.30
45807;DHT22;31507;51.494;7.518;2024-01-16T11:30:38;2.60;99.90
45807;DHT22;31507;51.494;7.518;2024-01-16T11:33:04;2.80;90.10
45807;DHT22;31507;51.494;7.518;2024-01-16T11:35:36;2.70;99.90
45807;DHT22;31507;51.494;7.518;2024-01-16T11:38:06;2.90;83.10
45807;DHT22;31507;51.494;7.518;2024-01-16T11:40:32;2.90;81.70
45807;DHT22;31507;51.494;7.518;2024-01-16T11:42:58;3.20;75.30
45807;DHT22;31507;51.494;7.518;2024-01-16T11:48:08;3.30;57.80
45807;DHT22;31507;51.494;7.518;2024-01-16T11:50:34;3.20;35.80
45807;DHT22;31507;51.494;7.518;2024-01-16T11:53:00;3.30;47.90
45807;DHT22;31507;51.494;7.518;2024-01-16T11:55:30;3.40;50.10
45807;DHT22;31507;51.494;7.518;2024-01-16T11:58:40;3.40;27.00
45807;DHT22;31507;51.494;7.518;2024-01-16T12:00:45;3.20;35.00
45807;DHT22;31507;51.494;7.518;2024-01-16T12:03:11;3.00;72.10
45807;DHT22;31507;51.494;7.518;2024-01-16T12:05:38;2.60;46.10
45807;DHT22;31507;51.494;7.518;2024-01-16T12:08:04;2.30;61.80
45807;DHT22;31507;51.494;7.518;2024-01-16T12:10:31;2.10;90.50
45807;DHT22;31507;51.494;7.518;2024-01-16T12:12:57;2.00;94.70
45807;DHT22;31507;51.494;7.518;2024-01-16T12:15:23;2.20;99.90
45807;DHT22;31507;51.494;7.518;2024-01-16T12:18:01;2.30;73.10
45807;DHT22;31507;51.494;7.518;2024-01-16T12:20:32;2.10;63.30
45807;DHT22;31507;51.494;7.518;2024-01-16T12:23:05;2.20;93.40
45807;DHT22;31507;51.494;7.518;2024-01-16T12:25:31;2.50;91.20
45807;DHT22;31507;51.494;7.518;2024-01-16T12:28:00;2.60;57.60
45807;DHT22;31507;51.494;7.518;2024-01-16T12:30:27;2.30;64.20
45807;DHT22;31507;51.494;7.518;2024-01-16T12:33:12;2.20;64.00
45807;DHT22;31507;51.494;7.518;2024-01-16T12:35:39;2.20;99.90
45807;DHT22;31507;51.494;7.518;2024-01-16T12:38:05;2.40;57.90
45807;DHT22;31507;51.494;7.518;2024-01-16T12:40:31;2.50;95.50
45807;DHT22;31507;51.494;7.518;2024-01-16T12:42:57;2.50;99.60
45807;DHT22;31507;51.494;7.518;2024-01-16T12:45:22;2.50;72.00
45807;DHT22;31507;51.494;7.518;2024-01-16T12:47:52;2.50;81.90
45807;DHT22;31507;51.494;7.518;2024-01-16T12:50:19;2.50;99.70
45807;DHT22;31507;51.494;7.518;2024-01-16T12:52:44;2.20;55.70
45807;DHT22;31507;51.494;7.518;2024-01-16T12:55:10;2.10;65.70
45807;DHT22;31507;51.494;7.518;2024-01-16T12:57:35;2.00;50.50
45807;DHT22;31507;51.494;7.518;2024-01-16T13:00:22;2.10;51.40
45807;DHT22;31507;51.494;7.518;2024-01-16T13:02:51;2.00;67.10
45807;DHT22;31507;51.494;7.518;2024-01-16T13:05:17;2.10;44.20
45807;DHT22;31507;51.494;7.518;2024-01-16T13:07:43;2.10;65.70
45807;DHT22;31507;51.494;7.518;2024-01-16T13:10:12;2.00;91.50
45807;DHT22;31507;51.494;7.518;2024-01-16T13:12:41;2.00;51.00
45807;DHT22;31507;51.494;7.518;2024-01-16T13:15:07;2.00;56.50
45807;DHT22;31507;51.494;7.518;2024-01-16T13:17:33;1.90;62.30
45807;DHT22;31507;51.494;7.518;2024-01-16T13:19:59;2.00;81.10
45807;DHT22;31507;51.494;7.518;2024-01-16T13:22:25;1.90;50.60
45807;DHT22;31507;51.494;7.518;2024-01-16T13:24:50;1.90;72.30
45807;DHT22;31507;51.494;7.518;2024-01-16T13:27:16;1.90;65.10
45807;DHT22;31507;51.494;7.518;2024-01-16T13:29:41;1.90;53.50
45807;DHT22;31507;51.494;7.518;2024-01-16T13:32:07;1.90;65.70
45807;DHT22;31507;51.494;7.518;2024-01-16T13:34:32;2.00;62.50
45807;DHT22;31507;51.494;7.518;2024-01-16T13:36:59;2.20;42.40
45807;DHT22;31507;51.494;7.518;2024-01-16T13:39:26;2.40;60.30
45807;DHT22;31507;51.494;7.518;2024-01-16T13:41:52;2.50;45.80
45807;DHT22;31507;51.494;7.518;2024-01-16T13:44:17;2.60;61.80
45807;DHT22;31507;51.494;7.518;2024-01-16T13:46:43;2.30;36.90
45807;DHT22;31507;51.494;7.518;2024-01-16T13:49:09;2.10;46.70
45807;DHT22;31507;51.494;7.518;2024-01-16T13:51:35;1.90;37.80
45807;DHT22;31507;51.494;7.518;2024-01-16T13:54:00;1.70;55.00
45807;DHT22;31507;51.494;7.518;2024-01-16T13:56:26;1.70;76.90
45807;DHT22;31507;51.494;7.518;2024-01-16T13:58:51;1.40;50.00
45807;DHT22;31507;51.494;7.518;2024-01-16T14:01:17;1.40;50.80
45807;DHT22;31507;51.494;7.518;2024-01-16T14:03:44;1.40;58.30
45807;DHT22;31507;51.494;7.518;2024-01-16T14:06:12;1.30;59.60
45807;DHT22;31507;51.494;7.518;2024-01-16T14:08:38;1.30;45.50
45807;DHT22;31507;51.494;7.518;2024-01-16T14:11:04;1.30;63.40
45807;DHT22;31507;51.494;7.518;2024-01-16T14:13:30;1.30;81.40
45807;DHT22;31507;51.494;7.518;2024-01-16T14:15:56;1.30;62.20
45807;DHT22;31507;51.494;7.518;2024-01-16T14:18:22;1.20;65.80
45807;DHT22;31507;51.494;7.518;2024-01-16T14:20:48;1.30;59.60
45807;DHT22;31507;51.494;7.518;2024-01-16T14:23:13;1.20;55.00
45807;DHT22;31507;51.494;7.518;2024-01-16T14:25:39;1.30;59.20
45807;DHT22;31507;51.494;7.518;2024-01-16T14:28:04;1.30;83.70
45807;DHT22;31507;51.494;7.518;2024-01-16T14:30:31;1.40;63.70
45807;DHT22;31507;51.494;7.518;2024-01-16T14:32:57;1.50;84.60
45807;DHT22;31507;51.494;7.518;2024-01-16T14:35:22;1.50;92.40
45807;DHT22;31507;51.494;7.518;2024-01-16T14:37:52;1.50;99.90
45807;DHT22;31507;51.494;7.518;2024-01-16T14:40:18;1.40;81.80
45807;DHT22;31507;51.494;7.518;2024-01-16T14:42:49;1.20;70.60
45807;DHT22;31507;51.494;7.518;2024-01-16T14:45:16;1.20;93.70
45807;DHT22;31507;51.494;7.518;2024-01-16T14:47:42;1.10;99.90
45807;DHT22;31507;51.494;7.518;2024-01-16T14:50:08;1.00;99.90
45807;DHT22;31507;51.494;7.518;2024-01-16T14:52:35;0.90;99.90
45807;DHT22;31507;51.494;7.518;2024-01-16T14:55:01;0.80;79.60
45807;DHT22;31507;51.494;7.518;2024-01-16T14:57:27;0.80;88.40
45807;DHT22;31507;51.494;7.518;2024-01-16T14:59:55;0.70;92.80
45807;DHT22;31507;51.494;7.518;2024-01-16T15:02:21;0.60;88.00
45807;DHT22;31507;51.494;7.518;2024-01-16T15:04:46;0.60;92.60
45807;DHT22;31507;51.494;7.518;2024-01-16T15:07:14;0.40;92.40
45807;DHT22;31507;51.494;7.518;2024-01-16T15:09:39;0.40;88.00
45807;DHT22;31507;51.494;7.518;2024-01-16T15:12:05;0.30;99.90
45807;DHT22;31507;51.494;7.518;2024-01-16T15:14:31;0.20;96.80
45807;DHT22;31507;51.494;7.518;2024-01-16T15:16:57;0.10;99.90
45807;DHT22;31507;51.494;7.518;2024-01-16T15:19:22;0.10;99.90
45807;DHT22;31507;51.494;7.518;2024-01-16T15:21:48;0.00;96.40
45807;DHT22;31507;51.494;7.518;2024-01-16T15:24:13;0.00;98.00
45807;DHT22;31507;51.494;7.518;2024-01-16T15:26:47;-0.10;99.90
45807;DHT22;31507;51.494;7.518;2024-01-16T15:29:12;-0.10;99.90
45807;DHT22;31507;51.494;7.518;2024-01-16T15:31:38;-0.20;99.90
45807;DHT22;31507;51.494;7.518;2024-01-16T15:34:03;-0.30;99.90
45807;DHT22;31507;51.494;7.518;2024-01-16T15:36:29;-0.40;99.90
45807;DHT22;31507;51.494;7.518;2024-01-16T15:38:55;-0.40;99.90
45807;DHT22;31507;51.494;7.518;2024-01-16T15:41:20;-0.40;99.90